sensor_id;sensor_type;location;lat;lon;timestamp;pressure;altitude;pressure_sealevel;temperature;humidity
2036;BME280;23642;42.658;23.350;2024-01-15T00:00:28;48255.19;;;-146.31;100.00
2036;BME280;23642;42.658;23.350;2024-01-15T00:02:58;48259.31;;;-146.31;100.00
2036;BME280;23642;42.658;23.350;2024-01-15T00:05:25;48213.97;;;-146.31;100.00
2036;BME280;23642;42.658;23.350;2024-01-15T00:07:52;48277.84;;;-146.31;100.00
2036;BME280;23642;42.658;23.350;2024-01-15T00:10:19;48240.75;;;-146.31;100.00
2036;BME280;23642;42.658;23.350;2024-01-15T00:12:46;48189.22;;;-146.31;100.00
2036;BME280;23642;42.658;23.350;2024-01-15T00:15:13;48129.47;;;-146.31;100.00
2036;BME280;23642;42.658;23.350;2024-01-15T00:17:41;48094.44;;;-146.31;100.00
2036;BME280;23642;42.658;23.350;2024-01-15T00:20:10;48049.09;;;-146.31;100.00
2036;BME280;23642;42.658;23.350;2024-01-15T00:22:37;48001.69;;;-146.31;100.00
2036;BME280;23642;42.658;23.350;2024-01-15T00:25:05;48007.88;;;-146.31;100.00
2036;BME280;23642;42.658;23.350;2024-01-15T00:27:32;48032.59;;;-146.31;100.00
2036;BME280;23642;42.658;23.350;2024-01-15T00:29:59;48018.19;;;-146.31;100.00
2036;BME280;23642;42.658;23.350;2024-01-15T00:32:27;47954.28;;;-146.31;100.00
2036;BME280;23642;42.658;23.350;2024-01-15T00:34:54;47896.59;;;-146.31;100.00
2036;BME280;23642;42.658;23.350;2024-01-15T00:37:22;47892.47;;;-146.31;100.00
2036;BME280;23642;42.658;23.350;2024-01-15T00:39:50;47853.31;;;-146.31;100.00
2036;BME280;23642;42.658;23.350;2024-01-15T00:42:17;47822.38;;;-146.31;100.00
2036;BME280;23642;42.658;23.350;2024-01-15T00:44:44;47766.75;;;-146.31;100.00
2036;BME280;23642;42.658;23.350;2024-01-15T00:47:14;47762.63;;;-146.31;100.00
2036;BME280;23642;42.658;23.350;2024-01-15T00:49:41;47744.09;;;-146.31;100.00
2036;BME280;23642;42.658;23.350;2024-01-15T00:52:08;47704.94;;;-146.31;100.00
2036;BME280;23642;42.658;23.350;2024-01-15T00:54:37;47653.41;;;-146.31;100.00
2036;BME280;23642;42.658;23.350;2024-01-15T00:57:05;47628.69;;;-146.31;100.00
2036;BME280;23642;42.658;23.350;2024-01-15T00:59:33;47517.41;;;-146.31;100.00
2036;BME280;23642;42.658;23.350;2024-01-15T01:02:00;47538.00;;;-146.31;100.00
2036;BME280;23642;42.658;23.350;2024-01-15T01:04:27;47513.28;;;-146.31;100.00
2036;BME280;23642;42.658;23.350;2024-01-15T01:06:54;47511.22;;;-146.31;100.00
2036;BME280;23642;42.658;23.350;2024-01-15T01:09:21;47443.22;;;-146.31;100.00
2036;BME280;23642;42.658;23.350;2024-01-15T01:11:50;47323.72;;;-146.31;100.00
2036;BME280;23642;42.658;23.350;2024-01-15T01:14:17;47228.94;;;-146.31;100.00
2036;BME280;23642;42.658;23.350;2024-01-15T01:16:44;47105.31;;;-146.31;100.00
2036;BME280;23642;42.658;23.350;2024-01-15T01:19:11;47090.88;;;-146.31;100.00
2036;BME280;23642;42.658;23.350;2024-01-15T01:21:38;47010.53;;;-146.31;100.00
2036;BME280;23642;42.658;23.350;2024-01-15T01:24:05;47029.09;;;-146.31;100.00
2036;BME280;23642;42.658;23.350;2024-01-15T01:26:32;47022.91;;;-146.31;100.00
2036;BME280;23642;42.658;23.350;2024-01-15T01:29:01;47037.31;;;-146.31;100.00
2036;BME280;23642;42.658;23.350;2024-01-15T01:31:28;46994.06;;;-146.31;100.00
2036;BME280;23642;42.658;23.350;2024-01-15T01:33:54;46932.25;;;-146.31;100.00
2036;BME280;23642;42.658;23.350;2024-01-15T01:36:21;46915.75;;;-146.31;100.00
2036;BME280;23642;42.658;23.350;2024-01-15T01:38:48;46856.03;;;-146.31;100.00
2036;BME280;23642;42.658;23.350;2024-01-15T01:41:17;46732.41;;;-146.31;100.00
2036;BME280;23642;42.658;23.350;2024-01-15T01:43:44;46664.44;;;-146.31;100.00
2036;BME280;23642;42.658;23.350;2024-01-15T01:46:12;46639.72;;;-146.31;100.00
2036;BME280;23642;42.658;23.350;2024-01-15T01:48:39;46763.31;;;-146.31;100.00
2036;BME280;23642;42.658;23.350;2024-01-15T01:51:07;46800.41;;;-146.31;100.00
2036;BME280;23642;42.658;23.350;2024-01-15T01:53:35;46868.38;;;-146.31;100.00
2036;BME280;23642;42.658;23.350;2024-01-15T01:56:05;46816.88;;;-146.31;100.00
2036;BME280;23642;42.658;23.350;2024-01-15T01:58:33;46785.97;;;-146.31;100.00
2036;BME280;23642;42.658;23.350;2024-01-15T02:01:00;46711.81;;;-146.31;100.00
2036;BME280;23642;42.658;23.350;2024-01-15T02:03:30;46672.66;;;-146.31;100.00
2036;BME280;23642;42.658;23.350;2024-01-15T02:05:58;46588.19;;;-146.31;100.00
2036;BME280;23642;42.658;23.350;2024-01-15T02:08:26;46551.13;;;-146.31;100.00
2036;BME280;23642;42.658;23.350;2024-01-15T02:10:53;46464.59;;;-146.31;100.00
2036;BME280;23642;42.658;23.350;2024-01-15T02:13:20;46433.69;;;-146.31;100.00
2036;BME280;23642;42.658;23.350;2024-01-15T02:15:47;46437.81;;;-146.31;100.00
2036;BME280;23642;42.658;23.350;2024-01-15T02:18:14;46511.97;;;-146.31;100.00
2036;BME280;23642;42.658;23.350;2024-01-15T02:20:46;46501.69;;;-146.31;100.00
2036;BME280;23642;42.658;23.350;2024-01-15T02:23:15;46514.03;;;-146.31;100.00
2036;BME280;23642;42.658;23.350;2024-01-15T02:25:44;46441.94;;;-146.31;100.00
2036;BME280;23642;42.658;23.350;2024-01-15T02:28:15;46423.41;;;-146.31;100.00
2036;BME280;23642;42.658;23.350;2024-01-15T02:30:44;46429.59;;;-146.31;100.00
2036;BME280;23642;42.658;23.350;2024-01-15T02:33:12;46462.53;;;-146.31;100.00
2036;BME280;23642;42.658;23.350;2024-01-15T02:35:39;46437.81;;;-146.31;100.00
2036;BME280;23642;42.658;23.350;2024-01-15T02:38:06;46423.41;;;-146.31;100.00
2036;BME280;23642;42.658;23.350;2024-01-15T02:40:35;46415.16;;;-146.31;100.00
2036;BME280;23642;42.658;23.350;2024-01-15T02:43:02;46406.94;;;-146.31;100.00
2036;BME280;23642;42.658;23.350;2024-01-15T02:45:30;46483.13;;;-146.31;100.00
2036;BME280;23642;42.658;23.350;2024-01-15T02:47:57;46518.16;;;-146.31;100.00
2036;BME280;23642;42.658;23.350;2024-01-15T02:50:24;46588.19;;;-146.31;100.00
2036;BME280;23642;42.658;23.350;2024-01-15T02:52:51;46575.84;;;-146.31;100.00
2036;BME280;23642;42.658;23.350;2024-01-15T02:55:18;46633.53;;;-146.31;100.00
2036;BME280;23642;42.658;23.350;2024-01-15T02:57:46;46742.72;;;-146.31;100.00
2036;BME280;23642;42.658;23.350;2024-01-15T03:00:14;46753.00;;;-146.31;100.00
2036;BME280;23642;42.658;23.350;2024-01-15T03:02:44;46767.44;;;-146.31;100.00
2036;BME280;23642;42.658;23.350;2024-01-15T03:05:12;47039.38;;;-146.31;100.00
2036;BME280;23642;42.658;23.350;2024-01-15T03:07:39;47035.25;;;-146.31;100.00
2036;BME280;23642;42.658;23.350;2024-01-15T03:10:06;47088.81;;;-146.31;100.00
2036;BME280;23642;42.658;23.350;2024-01-15T03:12:33;47125.91;;;-146.31;100.00
2036;BME280;23642;42.658;23.350;2024-01-15T03:15:03;47175.38;;;-146.31;99.85
2036;BME280;23642;42.658;23.350;2024-01-15T03:17:30;47253.66;;;-146.31;99.53
2036;BME280;23642;42.658;23.350;2024-01-15T03:19:58;47257.78;;;-146.31;99.96
2036;BME280;23642;42.658;23.350;2024-01-15T03:22:25;47212.44;;;-146.31;100.00
2036;BME280;23642;42.658;23.350;2024-01-15T03:24:52;47179.50;;;-146.31;100.00
2036;BME280;23642;42.658;23.350;2024-01-15T03:27:20;47231.00;;;-146.31;99.60
2036;BME280;23642;42.658;23.350;2024-01-15T03:29:47;47280.44;;;-146.31;99.59
2036;BME280;23642;42.658;23.350;2024-01-15T03:32:16;47303.13;;;-146.31;99.31
2036;BME280;23642;42.658;23.350;2024-01-15T03:34:45;47340.19;;;-146.31;98.74
2036;BME280;23642;42.658;23.350;2024-01-15T03:37:12;47389.66;;;-146.31;98.48
2036;BME280;23642;42.658;23.350;2024-01-15T03:39:39;47377.28;;;-146.31;99.37
2036;BME280;23642;42.658;23.350;2024-01-15T03:42:06;47350.50;;;-146.31;99.77
2036;BME280;23642;42.658;23.350;2024-01-15T03:44:35;47393.78;;;-146.31;98.56
2036;BME280;23642;42.658;23.350;2024-01-15T03:47:03;47488.56;;;-146.31;97.62
2036;BME280;23642;42.658;23.350;2024-01-15T03:49:31;47488.56;;;-146.31;98.16
2036;BME280;23642;42.658;23.350;2024-01-15T03:51:58;47455.59;;;-146.31;98.56
2036;BME280;23642;42.658;23.350;2024-01-15T03:54:25;47519.47;;;-146.31;97.91
2036;BME280;23642;42.658;23.350;2024-01-15T03:56:53;47500.94;;;-146.31;98.58
2036;BME280;23642;42.658;23.350;2024-01-15T03:59:20;47453.53;;;-146.31;99.86
2036;BME280;23642;42.658;23.350;2024-01-15T04:01:50;47418.50;;;-146.31;100.00
2036;BME280;23642;42.658;23.350;2024-01-15T04:04:17;47478.25;;;-146.31;99.99
2036;BME280;23642;42.658;23.350;2024-01-15T04:06:45;47393.78;;;-146.31;100.00
2036;BME280;23642;42.658;23.350;2024-01-15T04:09:12;47397.91;;;-146.31;100.00
2036;BME280;23642;42.658;23.350;2024-01-15T04:11:39;47377.28;;;-146.31;100.00
2036;BME280;23642;42.658;23.350;2024-01-15T04:14:06;47371.09;;;-146.31;100.00
2036;BME280;23642;42.658;23.350;2024-01-15T04:16:33;47303.13;;;-146.31;100.00
2036;BME280;23642;42.658;23.350;2024-01-15T04:19:00;47241.31;;;-146.31;100.00
2036;BME280;23642;42.658;23.350;2024-01-15T04:21:27;47183.59;;;-146.31;100.00
2036;BME280;23642;42.658;23.350;2024-01-15T04:23:58;47169.19;;;-146.31;100.00
2036;BME280;23642;42.658;23.350;2024-01-15T04:26:26;47181.53;;;-146.31;100.00
2036;BME280;23642;42.658;23.350;2024-01-15T04:28:53;47173.31;;;-146.31;100.00
2036;BME280;23642;42.658;23.350;2024-01-15T04:31:21;47185.66;;;-146.31;100.00
2036;BME280;23642;42.658;23.350;2024-01-15T04:33:48;47183.59;;;-146.31;100.00
2036;BME280;23642;42.658;23.350;2024-01-15T04:36:15;47204.22;;;-146.31;100.00
2036;BME280;23642;42.658;23.350;2024-01-15T04:38:42;47167.13;;;-146.31;100.00
2036;BME280;23642;42.658;23.350;2024-01-15T04:41:12;47173.31;;;-146.31;100.00
2036;BME280;23642;42.658;23.350;2024-01-15T04:43:39;47158.88;;;-146.31;100.00
2036;BME280;23642;42.658;23.350;2024-01-15T04:46:06;47090.88;;;-146.31;100.00
2036;BME280;23642;42.658;23.350;2024-01-15T04:48:33;47053.81;;;-146.31;100.00
2036;BME280;23642;42.658;23.350;2024-01-15T04:51:00;47020.84;;;-146.31;100.00
2036;BME280;23642;42.658;23.350;2024-01-15T04:53:28;46952.84;;;-146.31;100.00
2036;BME280;23642;42.658;23.350;2024-01-15T04:55:56;46963.16;;;-146.31;100.00
2036;BME280;23642;42.658;23.350;2024-01-15T04:58:25;46963.16;;;-146.31;100.00
2036;BME280;23642;42.658;23.350;2024-01-15T05:00:52;46903.41;;;-146.31;100.00
2036;BME280;23642;42.658;23.350;2024-01-15T05:03:20;46909.59;;;-146.31;100.00
2036;BME280;23642;42.658;23.350;2024-01-15T05:05:47;46926.06;;;-146.31;100.00
2036;BME280;23642;42.658;23.350;2024-01-15T05:08:14;46905.47;;;-146.31;100.00
2036;BME280;23642;42.658;23.350;2024-01-15T05:10:41;46870.44;;;-146.31;100.00
2036;BME280;23642;42.658;23.350;2024-01-15T05:13:08;46866.31;;;-146.31;100.00
2036;BME280;23642;42.658;23.350;2024-01-15T05:15:37;46866.31;;;-146.31;100.00
2036;BME280;23642;42.658;23.350;2024-01-15T05:18:04;46868.38;;;-146.31;100.00
2036;BME280;23642;42.658;23.350;2024-01-15T05:20:34;46829.25;;;-146.31;100.00
2036;BME280;23642;42.658;23.350;2024-01-15T05:23:00;46843.66;;;-146.31;100.00
2036;BME280;23642;42.658;23.350;2024-01-15T05:25:27;46924.00;;;-146.31;100.00
2036;BME280;23642;42.658;23.350;2024-01-15T05:27:54;46917.81;;;-146.31;100.00
2036;BME280;23642;42.658;23.350;2024-01-15T05:30:21;47014.66;;;-146.31;100.00
2036;BME280;23642;42.658;23.350;2024-01-15T05:32:50;46983.75;;;-146.31;100.00
2036;BME280;23642;42.658;23.350;2024-01-15T05:35:17;46940.50;;;-146.31;100.00
2036;BME280;23642;42.658;23.350;2024-01-15T05:37:45;46979.63;;;-146.31;100.00
2036;BME280;23642;42.658;23.350;2024-01-15T05:40:12;46992.00;;;-146.31;100.00
2036;BME280;23642;42.658;23.350;2024-01-15T05:42:41;47000.25;;;-146.31;100.00
2036;BME280;23642;42.658;23.350;2024-01-15T05:45:08;47002.28;;;-146.31;100.00
2036;BME280;23642;42.658;23.350;2024-01-15T05:47:36;47029.09;;;-146.31;100.00
2036;BME280;23642;42.658;23.350;2024-01-15T05:50:05;46956.97;;;-146.31;100.00
2036;BME280;23642;42.658;23.350;2024-01-15T05:52:32;46950.78;;;-146.31;100.00
2036;BME280;23642;42.658;23.350;2024-01-15T05:54:59;46924.00;;;-146.31;100.00
2036;BME280;23642;42.658;23.350;2024-01-15T05:57:27;46944.59;;;-146.31;100.00
2036;BME280;23642;42.658;23.350;2024-01-15T05:59:54;46862.19;;;-146.31;100.00
2036;BME280;23642;42.658;23.350;2024-01-15T06:02:22;46969.34;;;-146.31;100.00
2036;BME280;23642;42.658;23.350;2024-01-15T06:04:51;46956.97;;;-146.31;100.00
2036;BME280;23642;42.658;23.350;2024-01-15T06:07:20;46959.03;;;-146.31;100.00
2036;BME280;23642;42.658;23.350;2024-01-15T06:09:48;46975.50;;;-146.31;100.00
2036;BME280;23642;42.658;23.350;2024-01-15T06:12:16;47002.28;;;-146.31;100.00
2036;BME280;23642;42.658;23.350;2024-01-15T06:14:43;47035.25;;;-146.31;100.00
2036;BME280;23642;42.658;23.350;2024-01-15T06:17:10;47097.06;;;-146.31;100.00
2036;BME280;23642;42.658;23.350;2024-01-15T06:19:36;47115.63;;;-146.31;100.00
2036;BME280;23642;42.658;23.350;2024-01-15T06:22:03;47088.81;;;-146.31;100.00
2036;BME280;23642;42.658;23.350;2024-01-15T06:24:31;47146.53;;;-146.31;100.00
2036;BME280;23642;42.658;23.350;2024-01-15T06:26:59;47150.63;;;-146.31;100.00
2036;BME280;23642;42.658;23.350;2024-01-15T06:29:26;47187.72;;;-146.31;100.00
2036;BME280;23642;42.658;23.350;2024-01-15T06:31:53;47185.66;;;-146.31;100.00
2036;BME280;23642;42.658;23.350;2024-01-15T06:34:20;47249.53;;;-146.31;100.00
2036;BME280;23642;42.658;23.350;2024-01-15T06:36:47;47319.59;;;-146.31;100.00
2036;BME280;23642;42.658;23.350;2024-01-15T06:39:14;47377.28;;;-146.31;99.32
2036;BME280;23642;42.658;23.350;2024-01-15T06:41:43;47533.91;;;-146.31;98.51
2036;BME280;23642;42.658;23.350;2024-01-15T06:44:12;47554.50;;;-146.31;97.90
2036;BME280;23642;42.658;23.350;2024-01-15T06:46:42;47692.56;;;-146.31;96.08
2036;BME280;23642;42.658;23.350;2024-01-15T06:49:10;47676.06;;;-146.31;95.96
2036;BME280;23642;42.658;23.350;2024-01-15T06:51:37;47801.78;;;-146.31;95.41
2036;BME280;23642;42.658;23.350;2024-01-15T06:54:04;47875.97;;;-146.31;94.21
2036;BME280;23642;42.658;23.350;2024-01-15T06:56:31;47904.81;;;-146.31;93.81
2036;BME280;23642;42.658;23.350;2024-01-15T06:59:00;47933.69;;;-146.31;92.98
2036;BME280;23642;42.658;23.350;2024-01-15T07:01:28;47981.06;;;-146.31;91.82
2036;BME280;23642;42.658;23.350;2024-01-15T07:03:55;48016.13;;;-146.31;91.81
2036;BME280;23642;42.658;23.350;2024-01-15T07:06:21;48012.00;;;-146.31;91.52
2036;BME280;23642;42.658;23.350;2024-01-15T07:08:48;48047.03;;;-146.31;91.28
2036;BME280;23642;42.658;23.350;2024-01-15T07:11:15;48024.34;;;-146.31;92.14
2036;BME280;23642;42.658;23.350;2024-01-15T07:13:42;48077.94;;;-146.31;91.80
2036;BME280;23642;42.658;23.350;2024-01-15T07:16:11;48077.94;;;-146.31;91.51
2036;BME280;23642;42.658;23.350;2024-01-15T07:18:38;48077.94;;;-146.31;90.96
2036;BME280;23642;42.658;23.350;2024-01-15T07:21:07;48121.22;;;-146.31;90.67
2036;BME280;23642;42.658;23.350;2024-01-15T07:23:34;48143.91;;;-146.31;90.54
2036;BME280;23642;42.658;23.350;2024-01-15T07:27:37;48181.00;;;-146.31;89.37
2036;BME280;23642;42.658;23.350;2024-01-15T07:30:07;48181.00;;;-146.31;90.26
2036;BME280;23642;42.658;23.350;2024-01-15T07:32:34;48176.88;;;-146.31;89.52
2036;BME280;23642;42.658;23.350;2024-01-15T07:35:06;48240.75;;;-146.31;88.23
2036;BME280;23642;42.658;23.350;2024-01-15T07:37:33;48255.19;;;-146.31;89.49
2036;BME280;23642;42.658;23.350;2024-01-15T07:40:00;48255.19;;;-146.31;89.29
2036;BME280;23642;42.658;23.350;2024-01-15T07:42:26;48298.47;;;-146.31;88.81
2036;BME280;23642;42.658;23.350;2024-01-15T07:44:56;48325.25;;;-146.31;89.19
2036;BME280;23642;42.658;23.350;2024-01-15T07:47:24;48339.69;;;-146.31;88.64
2036;BME280;23642;42.658;23.350;2024-01-15T07:49:52;48415.94;;;-146.31;87.03
2036;BME280;23642;42.658;23.350;2024-01-15T07:52:20;48453.06;;;-146.31;85.84
2036;BME280;23642;42.658;23.350;2024-01-15T07:54:48;48494.28;;;-146.31;85.26
2036;BME280;23642;42.658;23.350;2024-01-15T07:57:15;48525.19;;;-146.31;86.02
2036;BME280;23642;42.658;23.350;2024-01-15T07:59:42;48605.59;;;-146.31;85.17
2036;BME280;23642;42.658;23.350;2024-01-15T08:02:14;48646.81;;;-146.31;85.42
2036;BME280;23642;42.658;23.350;2024-01-15T08:04:42;48671.53;;;-146.31;85.90
2036;BME280;23642;42.658;23.350;2024-01-15T08:07:10;48723.06;;;-146.31;83.62
2036;BME280;23642;42.658;23.350;2024-01-15T08:09:38;48766.38;;;-146.31;83.21
2036;BME280;23642;42.658;23.350;2024-01-15T08:12:05;48737.50;;;-146.31;84.26
2036;BME280;23642;42.658;23.350;2024-01-15T08:14:32;48762.25;;;-146.31;82.67
2036;BME280;23642;42.658;23.350;2024-01-15T08:16:59;48832.34;;;-146.31;82.76
2036;BME280;23642;42.658;23.350;2024-01-15T08:19:28;48826.16;;;-146.31;82.97
2036;BME280;23642;42.658;23.350;2024-01-15T08:21:59;48824.09;;;-146.31;84.31
2036;BME280;23642;42.658;23.350;2024-01-15T08:27:30;48840.56;;;-146.31;82.40
2036;BME280;23642;42.658;23.350;2024-01-15T08:29:59;48857.06;;;-146.31;82.89
2036;BME280;23642;42.658;23.350;2024-01-15T08:32:32;48904.47;;;-146.31;81.40
2036;BME280;23642;42.658;23.350;2024-01-15T08:35:03;48927.16;;;-146.31;80.84
2036;BME280;23642;42.658;23.350;2024-01-15T08:37:30;48927.16;;;-146.31;81.15
2036;BME280;23642;42.658;23.350;2024-01-15T08:39:58;48939.53;;;-146.31;80.92
2036;BME280;23642;42.658;23.350;2024-01-15T08:42:26;49156.00;;;-146.31;80.56
2036;BME280;23642;42.658;23.350;2024-01-15T08:44:53;49147.75;;;-146.31;78.82
2036;BME280;23642;42.658;23.350;2024-01-15T08:47:19;49275.56;;;-146.31;76.84
2036;BME280;23642;42.658;23.350;2024-01-15T08:49:46;49191.03;;;-146.31;75.12
2036;BME280;23642;42.658;23.350;2024-01-15T08:52:15;49275.56;;;-146.31;74.23
2036;BME280;23642;42.658;23.350;2024-01-15T08:54:43;49421.94;;;-146.31;73.40
2036;BME280;23642;42.658;23.350;2024-01-15T08:57:10;49401.34;;;-146.31;72.72
2036;BME280;23642;42.658;23.350;2024-01-15T08:59:37;49424.00;;;-146.31;73.09
2036;BME280;23642;42.658;23.350;2024-01-15T09:02:04;49487.94;;;-146.31;72.35
2036;BME280;23642;42.658;23.350;2024-01-15T09:04:33;49409.56;;;-146.31;71.95
2036;BME280;23642;42.658;23.350;2024-01-15T09:06:59;49463.19;;;-146.31;73.68
2036;BME280;23642;42.658;23.350;2024-01-15T09:09:30;49467.31;;;-146.31;74.91
2036;BME280;23642;42.658;23.350;2024-01-15T09:11:58;49450.81;;;-146.31;76.92
2036;BME280;23642;42.658;23.350;2024-01-15T09:14:25;49459.06;;;-146.31;75.37
2036;BME280;23642;42.658;23.350;2024-01-15T09:16:54;49498.22;;;-146.31;75.02
2036;BME280;23642;42.658;23.350;2024-01-15T09:19:21;49529.16;;;-146.31;74.87
2036;BME280;23642;42.658;23.350;2024-01-15T09:21:50;49527.09;;;-146.31;74.66
2036;BME280;23642;42.658;23.350;2024-01-15T09:24:17;49605.44;;;-146.31;75.33
2036;BME280;23642;42.658;23.350;2024-01-15T09:26:46;49599.25;;;-146.31;73.45
2036;BME280;23642;42.658;23.350;2024-01-15T09:29:19;49601.31;;;-146.31;73.72
2036;BME280;23642;42.658;23.350;2024-01-15T09:31:46;49574.53;;;-146.31;74.05
2036;BME280;23642;42.658;23.350;2024-01-15T09:34:18;49531.22;;;-146.31;75.13
2036;BME280;23642;42.658;23.350;2024-01-15T09:36:45;49558.03;;;-146.31;74.77
2036;BME280;23642;42.658;23.350;2024-01-15T09:39:14;49576.59;;;-146.31;75.62
2036;BME280;23642;42.658;23.350;2024-01-15T09:41:41;49601.31;;;-146.31;75.55
2036;BME280;23642;42.658;23.350;2024-01-15T09:44:10;49591.03;;;-146.31;76.15
2036;BME280;23642;42.658;23.350;2024-01-15T09:46:39;49624.00;;;-146.31;75.67
2036;BME280;23642;42.658;23.350;2024-01-15T09:49:07;49646.69;;;-146.31;75.25
2036;BME280;23642;42.658;23.350;2024-01-15T09:51:35;49599.25;;;-146.31;75.16
2036;BME280;23642;42.658;23.350;2024-01-15T09:54:02;49591.03;;;-146.31;75.90
2036;BME280;23642;42.658;23.350;2024-01-15T09:56:30;49560.09;;;-146.31;76.69
2036;BME280;23642;42.658;23.350;2024-01-15T09:58:58;49566.28;;;-146.31;78.15
2036;BME280;23642;42.658;23.350;2024-01-15T10:01:26;49537.41;;;-146.31;79.15
2036;BME280;23642;42.658;23.350;2024-01-15T10:03:55;49547.72;;;-146.31;79.42
2036;BME280;23642;42.658;23.350;2024-01-15T10:06:23;49564.22;;;-146.31;77.85
2036;BME280;23642;42.658;23.350;2024-01-15T10:08:51;49555.97;;;-146.31;79.37
2036;BME280;23642;42.658;23.350;2024-01-15T10:11:18;49580.72;;;-146.31;78.32
2036;BME280;23642;42.658;23.350;2024-01-15T10:13:46;49578.66;;;-146.31;78.85
2036;BME280;23642;42.658;23.350;2024-01-15T10:16:16;49588.97;;;-146.31;78.19
2036;BME280;23642;42.658;23.350;2024-01-15T10:18:45;49576.59;;;-146.31;79.50
2036;BME280;23642;42.658;23.350;2024-01-15T10:21:12;49541.53;;;-146.31;79.31
2036;BME280;23642;42.658;23.350;2024-01-15T10:23:41;49597.19;;;-146.31;78.77
2036;BME280;23642;42.658;23.350;2024-01-15T10:26:24;49613.69;;;-146.31;78.77
2036;BME280;23642;42.658;23.350;2024-01-15T10:28:51;49650.81;;;-146.31;76.53
2036;BME280;23642;42.658;23.350;2024-01-15T10:31:19;49661.13;;;-146.31;75.59
2036;BME280;23642;42.658;23.350;2024-01-15T10:33:48;49753.91;;;-146.31;76.46
2036;BME280;23642;42.658;23.350;2024-01-15T10:36:16;49786.91;;;-146.31;76.77
2036;BME280;23642;42.658;23.350;2024-01-15T10:38:44;49768.34;;;-146.31;76.38
2036;BME280;23642;42.658;23.350;2024-01-15T10:41:11;49741.53;;;-146.31;74.67
2036;BME280;23642;42.658;23.350;2024-01-15T10:43:38;49764.22;;;-146.31;73.52
2036;BME280;23642;42.658;23.350;2024-01-15T10:46:07;49745.66;;;-146.31;73.89
2036;BME280;23642;42.658;23.350;2024-01-15T10:48:34;49760.09;;;-146.31;72.02
2036;BME280;23642;42.658;23.350;2024-01-15T10:51:04;49817.84;;;-146.31;73.75
2036;BME280;23642;42.658;23.350;2024-01-15T10:53:37;49842.56;;;-146.31;74.01
2036;BME280;23642;42.658;23.350;2024-01-15T10:56:07;49840.50;;;-146.31;72.49
2036;BME280;23642;42.658;23.350;2024-01-15T10:58:41;49863.19;;;-146.31;71.83
2036;BME280;23642;42.658;23.350;2024-01-15T11:01:08;49939.50;;;-146.31;71.02
2036;BME280;23642;42.658;23.350;2024-01-15T11:03:36;49976.59;;;-146.31;68.09
2036;BME280;23642;42.658;23.350;2024-01-15T11:06:16;50001.34;;;-146.31;70.19
2036;BME280;23642;42.658;23.350;2024-01-15T11:08:45;50131.28;;;-146.31;66.88
2036;BME280;23642;42.658;23.350;2024-01-15T11:11:16;50395.25;;;-146.31;66.31
2036;BME280;23642;42.658;23.350;2024-01-15T11:13:45;50572.63;;;-146.31;64.13
2036;BME280;23642;42.658;23.350;2024-01-15T11:16:16;50824.25;;;-146.31;64.22
2036;BME280;23642;42.658;23.350;2024-01-15T11:19:01;50696.38;;;-146.31;61.46
2036;BME280;23642;42.658;23.350;2024-01-15T11:21:33;50729.38;;;-146.31;61.21
2036;BME280;23642;42.658;23.350;2024-01-15T11:24:01;50849.00;;;-146.31;60.83
2036;BME280;23642;42.658;23.350;2024-01-15T11:26:36;50853.13;;;-146.31;60.66
2036;BME280;23642;42.658;23.350;2024-01-15T11:29:05;50816.00;;;-146.31;58.68
2036;BME280;23642;42.658;23.350;2024-01-15T11:31:58;50741.75;;;-146.31;57.01
2036;BME280;23642;42.658;23.350;2024-01-15T11:34:54;50473.63;;;-146.31;57.71
2036;BME280;23642;42.658;23.350;2024-01-15T11:37:25;50457.13;;;-146.31;56.83
2036;BME280;23642;42.658;23.350;2024-01-15T11:39:53;50333.38;;;-146.31;58.25
2036;BME280;23642;42.658;23.350;2024-01-15T11:42:20;50411.75;;;-146.31;56.07
2036;BME280;23642;42.658;23.350;2024-01-15T11:44:49;50488.06;;;-146.31;53.98
2036;BME280;23642;42.658;23.350;2024-01-15T11:47:38;50552.00;;;-146.31;56.13
2036;BME280;23642;42.658;23.350;2024-01-15T11:50:14;50618.00;;;-146.31;56.08
2036;BME280;23642;42.658;23.350;2024-01-15T11:52:49;50615.94;;;-146.31;56.16
2036;BME280;23642;42.658;23.350;2024-01-15T11:55:25;50636.56;;;-146.31;56.71
2036;BME280;23642;42.658;23.350;2024-01-15T11:57:55;50615.94;;;-146.31;55.28
2036;BME280;23642;42.658;23.350;2024-01-15T12:00:22;50626.25;;;-146.31;55.34
2036;BME280;23642;42.658;23.350;2024-01-15T12:02:51;50539.63;;;-146.31;56.71
2036;BME280;23642;42.658;23.350;2024-01-15T12:05:22;50684.00;;;-146.31;56.55
2036;BME280;23642;42.658;23.350;2024-01-15T12:07:50;50655.13;;;-146.31;58.51
2036;BME280;23642;42.658;23.350;2024-01-15T12:10:18;50675.75;;;-146.31;58.55
2036;BME280;23642;42.658;23.350;2024-01-15T12:12:57;50638.63;;;-146.31;58.98
2036;BME280;23642;42.658;23.350;2024-01-15T12:15:25;50708.75;;;-146.31;58.30
2036;BME280;23642;42.658;23.350;2024-01-15T12:17:54;50700.50;;;-146.31;55.97
2036;BME280;23642;42.658;23.350;2024-01-15T12:20:23;50574.69;;;-146.31;56.90
2036;BME280;23642;42.658;23.350;2024-01-15T12:22:52;50632.44;;;-146.31;56.63
2036;BME280;23642;42.658;23.350;2024-01-15T12:25:20;50677.81;;;-146.31;56.73
2036;BME280;23642;42.658;23.350;2024-01-15T12:27:48;50665.44;;;-146.31;58.02
2036;BME280;23642;42.658;23.350;2024-01-15T12:30:16;50634.47;;;-146.31;58.75
2036;BME280;23642;42.658;23.350;2024-01-15T12:32:44;50634.47;;;-146.31;58.60
2036;BME280;23642;42.658;23.350;2024-01-15T12:35:12;50630.38;;;-146.31;57.97
2036;BME280;23642;42.658;23.350;2024-01-15T12:37:42;50634.47;;;-146.31;56.54
2036;BME280;23642;42.658;23.350;2024-01-15T12:40:19;50626.25;;;-146.31;56.50
2036;BME280;23642;42.658;23.350;2024-01-15T12:42:47;50640.69;;;-146.31;56.06
2036;BME280;23642;42.658;23.350;2024-01-15T12:45:14;50655.13;;;-146.31;54.61